sensor_id;sensor_type;location;lat;lon;timestamp;temperature;humidity
72106;SHT30;59975;47.646;18.318;2023-04-15T00:00:32;6.08;92.55
72106;SHT30;59975;47.646;18.318;2023-04-15T00:02:58;6.08;92.52
72106;SHT30;59975;47.646;18.318;2023-04-15T00:05:24;6.15;92.30
72106;SHT30;59975;47.646;18.318;2023-04-15T00:07:50;6.12;92.47
72106;SHT30;59975;47.646;18.318;2023-04-15T00:10:15;6.14;92.54
72106;SHT30;59975;47.646;18.318;2023-04-15T00:12:48;6.22;92.52
72106;SHT30;59975;47.646;18.318;2023-04-15T00:15:13;6.21;92.86
72106;SHT30;59975;47.646;18.318;2023-04-15T00:17:39;6.18;92.73
72106;SHT30;59975;47.646;18.318;2023-04-15T00:20:05;6.18;93.19
72106;SHT30;59975;47.646;18.318;2023-04-15T00:22:31;6.21;93.17
72106;SHT30;59975;47.646;18.318;2023-04-15T00:24:57;6.25;92.97
72106;SHT30;59975;47.646;18.318;2023-04-15T00:27:22;6.29;92.77
72106;SHT30;59975;47.646;18.318;2023-04-15T00:29:48;6.35;92.36
72106;SHT30;59975;47.646;18.318;2023-04-15T00:32:13;6.30;92.80
72106;SHT30;59975;47.646;18.318;2023-04-15T00:34:39;6.32;92.33
72106;SHT30;59975;47.646;18.318;2023-04-15T00:37:05;6.26;92.50
72106;SHT30;59975;47.646;18.318;2023-04-15T00:39:30;6.22;92.56
72106;SHT30;59975;47.646;18.318;2023-04-15T00:41:56;6.24;92.61
72106;SHT30;59975;47.646;18.318;2023-04-15T00:44:22;6.22;92.66
72106;SHT30;59975;47.646;18.318;2023-04-15T00:46:50;6.18;92.48
72106;SHT30;59975;47.646;18.318;2023-04-15T00:49:15;6.14;92.42
72106;SHT30;59975;47.646;18.318;2023-04-15T00:51:42;6.18;92.50
72106;SHT30;59975;47.646;18.318;2023-04-15T00:54:09;6.14;92.59
72106;SHT30;59975;47.646;18.318;2023-04-15T00:56:36;6.14;92.48
72106;SHT30;59975;47.646;18.318;2023-04-15T00:59:03;6.09;92.78
72106;SHT30;59975;47.646;18.318;2023-04-15T01:01:28;6.18;92.53
72106;SHT30;59975;47.646;18.318;2023-04-15T01:03:56;6.14;92.38
72106;SHT30;59975;47.646;18.318;2023-04-15T01:06:24;6.14;92.19
72106;SHT30;59975;47.646;18.318;2023-04-15T01:08:51;6.04;92.75
72106;SHT30;59975;47.646;18.318;2023-04-15T01:11:17;6.08;92.48
72106;SHT30;59975;47.646;18.318;2023-04-15T01:13:43;6.11;92.48
72106;SHT30;59975;47.646;18.318;2023-04-15T01:16:10;6.15;92.50
72106;SHT30;59975;47.646;18.318;2023-04-15T01:18:36;6.08;92.80
72106;SHT30;59975;47.646;18.318;2023-04-15T01:21:04;6.09;92.78
72106;SHT30;59975;47.646;18.318;2023-04-15T01:23:30;6.09;92.66
72106;SHT30;59975;47.646;18.318;2023-04-15T01:25:57;6.11;92.46
72106;SHT30;59975;47.646;18.318;2023-04-15T01:28:23;6.15;92.50
72106;SHT30;59975;47.646;18.318;2023-04-15T01:30:50;6.12;92.41
72106;SHT30;59975;47.646;18.318;2023-04-15T01:33:15;6.15;92.22
72106;SHT30;59975;47.646;18.318;2023-04-15T01:35:41;6.15;92.29
72106;SHT30;59975;47.646;18.318;2023-04-15T01:38:09;6.16;92.41
72106;SHT30;59975;47.646;18.318;2023-04-15T01:40:35;6.09;92.43
72106;SHT30;59975;47.646;18.318;2023-04-15T01:43:01;6.09;92.40
72106;SHT30;59975;47.646;18.318;2023-04-15T01:45:28;6.11;92.31
72106;SHT30;59975;47.646;18.318;2023-04-15T01:47:53;6.02;92.44
72106;SHT30;59975;47.646;18.318;2023-04-15T01:50:19;5.95;92.79
72106;SHT30;59975;47.646;18.318;2023-04-15T01:52:45;5.92;92.43
72106;SHT30;59975;47.646;18.318;2023-04-15T01:55:11;5.94;92.55
72106;SHT30;59975;47.646;18.318;2023-04-15T01:57:37;5.88;92.60
72106;SHT30;59975;47.646;18.318;2023-04-15T02:00:03;5.85;92.73
72106;SHT30;59975;47.646;18.318;2023-04-15T02:02:29;5.87;92.96
72106;SHT30;59975;47.646;18.318;2023-04-15T02:04:55;5.84;93.09
72106;SHT30;59975;47.646;18.318;2023-04-15T02:07:20;5.81;92.90
72106;SHT30;59975;47.646;18.318;2023-04-15T02:09:46;5.74;92.74
72106;SHT30;59975;47.646;18.318;2023-04-15T02:12:11;5.70;92.88
72106;SHT30;59975;47.646;18.318;2023-04-15T02:14:37;5.64;92.94
72106;SHT30;59975;47.646;18.318;2023-04-15T02:17:03;5.51;93.13
72106;SHT30;59975;47.646;18.318;2023-04-15T02:19:33;5.37;93.21
72106;SHT30;59975;47.646;18.318;2023-04-15T02:21:59;5.36;93.49
72106;SHT30;59975;47.646;18.318;2023-04-15T02:24:26;5.24;93.87
72106;SHT30;59975;47.646;18.318;2023-04-15T02:26:52;5.18;94.10
72106;SHT30;59975;47.646;18.318;2023-04-15T02:29:17;5.12;94.18
72106;SHT30;59975;47.646;18.318;2023-04-15T02:31:43;5.05;94.07
72106;SHT30;59975;47.646;18.318;2023-04-15T02:34:09;5.08;94.41
72106;SHT30;59975;47.646;18.318;2023-04-15T02:36:34;5.09;94.47
72106;SHT30;59975;47.646;18.318;2023-04-15T02:39:00;5.20;94.38
72106;SHT30;59975;47.646;18.318;2023-04-15T02:41:26;5.18;94.56
72106;SHT30;59975;47.646;18.318;2023-04-15T02:43:53;5.23;94.56
72106;SHT30;59975;47.646;18.318;2023-04-15T02:46:18;5.26;94.36
72106;SHT30;59975;47.646;18.318;2023-04-15T02:48:44;5.36;94.23
72106;SHT30;59975;47.646;18.318;2023-04-15T02:51:18;5.36;94.29
72106;SHT30;59975;47.646;18.318;2023-04-15T02:53:47;5.41;94.11
72106;SHT30;59975;47.646;18.318;2023-04-15T02:56:14;5.41;94.13
72106;SHT30;59975;47.646;18.318;2023-04-15T02:58:40;5.44;94.26
72106;SHT30;59975;47.646;18.318;2023-04-15T03:01:06;5.53;94.01
72106;SHT30;59975;47.646;18.318;2023-04-15T03:03:33;5.47;93.97
72106;SHT30;59975;47.646;18.318;2023-04-15T03:05:59;5.48;94.25
72106;SHT30;59975;47.646;18.318;2023-04-15T03:08:24;5.43;94.34
72106;SHT30;59975;47.646;18.318;2023-04-15T03:10:50;5.50;94.09
72106;SHT30;59975;47.646;18.318;2023-04-15T03:13:17;5.54;94.11
72106;SHT30;59975;47.646;18.318;2023-04-15T03:15:45;5.54;94.27
72106;SHT30;59975;47.646;18.318;2023-04-15T03:18:11;5.58;94.10
72106;SHT30;59975;47.646;18.318;2023-04-15T03:20:36;5.55;94.18
72106;SHT30;59975;47.646;18.318;2023-04-15T03:23:02;5.67;94.09
72106;SHT30;59975;47.646;18.318;2023-04-15T03:25:27;5.68;93.96
72106;SHT30;59975;47.646;18.318;2023-04-15T03:27:52;5.68;93.86
72106;SHT30;59975;47.646;18.318;2023-04-15T03:30:18;5.79;93.60
72106;SHT30;59975;47.646;18.318;2023-04-15T03:32:43;5.78;93.71
72106;SHT30;59975;47.646;18.318;2023-04-15T03:35:09;5.75;93.55
72106;SHT30;59975;47.646;18.318;2023-04-15T03:37:34;5.78;93.52
72106;SHT30;59975;47.646;18.318;2023-04-15T03:40:00;5.81;93.33
72106;SHT30;59975;47.646;18.318;2023-04-15T03:42:26;5.81;93.12
72106;SHT30;59975;47.646;18.318;2023-04-15T03:44:51;5.77;93.26
72106;SHT30;59975;47.646;18.318;2023-04-15T03:47:17;5.71;93.36
72106;SHT30;59975;47.646;18.318;2023-04-15T03:49:42;5.67;93.73
72106;SHT30;59975;47.646;18.318;2023-04-15T03:52:07;5.67;93.57
72106;SHT30;59975;47.646;18.318;2023-04-15T03:54:33;5.74;93.48
72106;SHT30;59975;47.646;18.318;2023-04-15T03:56:58;5.68;93.77
72106;SHT30;59975;47.646;18.318;2023-04-15T03:59:24;5.68;93.87
72106;SHT30;59975;47.646;18.318;2023-04-15T04:01:50;5.79;93.80
72106;SHT30;59975;47.646;18.318;2023-04-15T04:04:15;5.84;93.89
72106;SHT30;59975;47.646;18.318;2023-04-15T04:06:41;5.90;93.80
72106;SHT30;59975;47.646;18.318;2023-04-15T04:09:06;5.88;93.65
72106;SHT30;59975;47.646;18.318;2023-04-15T04:11:31;6.02;93.54
72106;SHT30;59975;47.646;18.318;2023-04-15T04:13:57;5.98;93.53
72106;SHT30;59975;47.646;18.318;2023-04-15T04:16:23;5.97;93.69
72106;SHT30;59975;47.646;18.318;2023-04-15T04:18:48;5.97;93.80
72106;SHT30;59975;47.646;18.318;2023-04-15T04:21:14;5.98;93.79
72106;SHT30;59975;47.646;18.318;2023-04-15T04:23:40;6.04;93.83
72106;SHT30;59975;47.646;18.318;2023-04-15T04:26:05;6.16;93.55
72106;SHT30;59975;47.646;18.318;2023-04-15T04:28:31;6.26;93.09
72106;SHT30;59975;47.646;18.318;2023-04-15T04:30:57;6.26;93.29
72106;SHT30;59975;47.646;18.318;2023-04-15T04:33:22;6.36;93.00
72106;SHT30;59975;47.646;18.318;2023-04-15T04:35:47;6.43;93.11
72106;SHT30;59975;47.646;18.318;2023-04-15T04:38:13;6.49;92.97
72106;SHT30;59975;47.646;18.318;2023-04-15T04:40:38;6.59;92.88
72106;SHT30;59975;47.646;18.318;2023-04-15T04:43:11;6.70;92.25
72106;SHT30;59975;47.646;18.318;2023-04-15T04:45:37;6.75;92.17
72106;SHT30;59975;47.646;18.318;2023-04-15T04:48:02;6.84;92.09
72106;SHT30;59975;47.646;18.318;2023-04-15T04:50:31;6.90;91.96
72106;SHT30;59975;47.646;18.318;2023-04-15T04:52:56;6.98;91.52
72106;SHT30;59975;47.646;18.318;2023-04-15T04:55:22;7.10;91.62
72106;SHT30;59975;47.646;18.318;2023-04-15T04:57:47;7.20;91.52
72106;SHT30;59975;47.646;18.318;2023-04-15T05:00:13;7.36;90.96
72106;SHT30;59975;47.646;18.318;2023-04-15T05:02:39;7.30;91.09
72106;SHT30;59975;47.646;18.318;2023-04-15T05:05:06;7.35;91.20
72106;SHT30;59975;47.646;18.318;2023-04-15T05:07:32;7.48;90.97
72106;SHT30;59975;47.646;18.318;2023-04-15T05:09:57;7.63;90.48
72106;SHT30;59975;47.646;18.318;2023-04-15T05:12:22;7.72;90.22
72106;SHT30;59975;47.646;18.318;2023-04-15T05:14:48;7.78;90.19
72106;SHT30;59975;47.646;18.318;2023-04-15T05:17:14;7.78;89.78
72106;SHT30;59975;47.646;18.318;2023-04-15T05:19:39;7.93;89.27
72106;SHT30;59975;47.646;18.318;2023-04-15T05:22:05;8.05;89.10
72106;SHT30;59975;47.646;18.318;2023-04-15T05:24:31;8.27;87.93
72106;SHT30;59975;47.646;18.318;2023-04-15T05:26:56;8.44;88.29
72106;SHT30;59975;47.646;18.318;2023-04-15T05:29:22;8.50;87.78
72106;SHT30;59975;47.646;18.318;2023-04-15T05:31:47;8.53;88.07
72106;SHT30;59975;47.646;18.318;2023-04-15T05:34:13;8.61;87.51
72106;SHT30;59975;47.646;18.318;2023-04-15T05:36:40;8.40;87.54
72106;SHT30;59975;47.646;18.318;2023-04-15T05:39:05;8.36;87.60
72106;SHT30;59975;47.646;18.318;2023-04-15T05:41:31;8.40;87.34
72106;SHT30;59975;47.646;18.318;2023-04-15T05:43:56;8.44;87.52
72106;SHT30;59975;47.646;18.318;2023-04-15T05:46:22;8.23;87.78
72106;SHT30;59975;47.646;18.318;2023-04-15T05:48:47;8.26;87.76
72106;SHT30;59975;47.646;18.318;2023-04-15T05:51:13;8.24;87.62
72106;SHT30;59975;47.646;18.318;2023-04-15T05:53:38;8.33;88.09
72106;SHT30;59975;47.646;18.318;2023-04-15T05:56:06;8.34;87.40
72106;SHT30;59975;47.646;18.318;2023-04-15T05:58:32;8.33;88.32
72106;SHT30;59975;47.646;18.318;2023-04-15T06:00:57;8.48;87.96
72106;SHT30;59975;47.646;18.318;2023-04-15T06:03:23;8.77;87.30
72106;SHT30;59975;47.646;18.318;2023-04-15T06:05:48;8.95;87.11
72106;SHT30;59975;47.646;18.318;2023-04-15T06:08:14;9.14;85.87
72106;SHT30;59975;47.646;18.318;2023-04-15T06:10:39;9.42;85.26
72106;SHT30;59975;47.646;18.318;2023-04-15T06:13:06;9.73;84.90
72106;SHT30;59975;47.646;18.318;2023-04-15T06:15:32;10.17;83.59
72106;SHT30;59975;47.646;18.318;2023-04-15T06:17:57;10.24;82.34
72106;SHT30;59975;47.646;18.318;2023-04-15T06:20:23;10.61;81.87
72106;SHT30;59975;47.646;18.318;2023-04-15T06:22:48;10.82;81.30
72106;SHT30;59975;47.646;18.318;2023-04-15T06:25:14;10.69;81.25
72106;SHT30;59975;47.646;18.318;2023-04-15T06:27:40;10.96;80.96
72106;SHT30;59975;47.646;18.318;2023-04-15T06:30:06;11.16;80.03
72106;SHT30;59975;47.646;18.318;2023-04-15T06:32:32;11.26;79.35
72106;SHT30;59975;47.646;18.318;2023-04-15T06:34:57;11.20;79.34
72106;SHT30;59975;47.646;18.318;2023-04-15T06:37:23;11.24;79.30
72106;SHT30;59975;47.646;18.318;2023-04-15T06:39:48;10.82;80.87
72106;SHT30;59975;47.646;18.318;2023-04-15T06:42:14;10.61;80.80
72106;SHT30;59975;47.646;18.318;2023-04-15T06:44:40;10.65;81.58
72106;SHT30;59975;47.646;18.318;2023-04-15T06:47:05;10.40;82.00
72106;SHT30;59975;47.646;18.318;2023-04-15T06:49:31;10.25;81.61
72106;SHT30;59975;47.646;18.318;2023-04-15T06:51:57;10.14;82.18
72106;SHT30;59975;47.646;18.318;2023-04-15T06:54:24;9.93;82.43
72106;SHT30;59975;47.646;18.318;2023-04-15T06:56:51;9.74;83.82
72106;SHT30;59975;47.646;18.318;2023-04-15T06:59:16;9.52;84.72
72106;SHT30;59975;47.646;18.318;2023-04-15T07:01:42;9.46;85.21
72106;SHT30;59975;47.646;18.318;2023-04-15T07:04:07;9.53;84.84
72106;SHT30;59975;47.646;18.318;2023-04-15T07:06:33;9.53;85.06
72106;SHT30;59975;47.646;18.318;2023-04-15T07:08:59;9.46;85.11
72106;SHT30;59975;47.646;18.318;2023-04-15T07:11:26;9.22;85.80
72106;SHT30;59975;47.646;18.318;2023-04-15T07:13:51;9.15;86.75
72106;SHT30;59975;47.646;18.318;2023-04-15T07:16:17;9.28;86.04
72106;SHT30;59975;47.646;18.318;2023-04-15T07:18:42;9.31;86.33
72106;SHT30;59975;47.646;18.318;2023-04-15T07:21:08;9.29;85.50
72106;SHT30;59975;47.646;18.318;2023-04-15T07:23:34;9.42;85.65
72106;SHT30;59975;47.646;18.318;2023-04-15T07:25:59;9.52;85.38
72106;SHT30;59975;47.646;18.318;2023-04-15T07:28:25;9.64;84.82
72106;SHT30;59975;47.646;18.318;2023-04-15T07:30:51;9.59;84.57
72106;SHT30;59975;47.646;18.318;2023-04-15T07:33:16;9.77;84.43
72106;SHT30;59975;47.646;18.318;2023-04-15T07:35:42;9.95;83.99
72106;SHT30;59975;47.646;18.318;2023-04-15T07:38:07;10.22;82.91
72106;SHT30;59975;47.646;18.318;2023-04-15T07:40:33;10.27;81.12
72106;SHT30;59975;47.646;18.318;2023-04-15T07:42:58;10.57;80.79
72106;SHT30;59975;47.646;18.318;2023-04-15T07:45:24;10.72;79.90
72106;SHT30;59975;47.646;18.318;2023-04-15T07:47:49;10.99;79.61
72106;SHT30;59975;47.646;18.318;2023-04-15T07:50:16;11.29;78.64
72106;SHT30;59975;47.646;18.318;2023-04-15T07:52:42;11.46;78.28
72106;SHT30;59975;47.646;18.318;2023-04-15T07:55:08;11.57;76.69
72106;SHT30;59975;47.646;18.318;2023-04-15T07:57:34;11.80;76.02
72106;SHT30;59975;47.646;18.318;2023-04-15T08:00:01;11.75;75.94
72106;SHT30;59975;47.646;18.318;2023-04-15T08:02:28;11.85;75.98
72106;SHT30;59975;47.646;18.318;2023-04-15T08:04:53;11.95;74.70
72106;SHT30;59975;47.646;18.318;2023-04-15T08:07:18;11.88;75.50
72106;SHT30;59975;47.646;18.318;2023-04-15T08:09:44;11.59;75.83
72106;SHT30;59975;47.646;18.318;2023-04-15T08:12:10;11.92;75.18
72106;SHT30;59975;47.646;18.318;2023-04-15T08:14:38;12.44;74.66
72106;SHT30;59975;47.646;18.318;2023-04-15T08:17:03;12.53;73.17
72106;SHT30;59975;47.646;18.318;2023-04-15T08:19:30;12.63;73.00
72106;SHT30;59975;47.646;18.318;2023-04-15T08:21:55;12.36;72.88
72106;SHT30;59975;47.646;18.318;2023-04-15T08:24:22;12.85;72.59
72106;SHT30;59975;47.646;18.318;2023-04-15T08:26:48;12.73;72.37
72106;SHT30;59975;47.646;18.318;2023-04-15T08:29:13;13.11;72.10
72106;SHT30;59975;47.646;18.318;2023-04-15T08:31:39;13.17;70.80
72106;SHT30;59975;47.646;18.318;2023-04-15T08:34:04;13.02;69.71
72106;SHT30;59975;47.646;18.318;2023-04-15T08:36:30;13.04;69.85
72106;SHT30;59975;47.646;18.318;2023-04-15T08:38:57;13.34;70.07
72106;SHT30;59975;47.646;18.318;2023-04-15T08:41:24;12.83;71.30
72106;SHT30;59975;47.646;18.318;2023-04-15T08:43:58;12.79;72.20
72106;SHT30;59975;47.646;18.318;2023-04-15T08:46:25;12.44;72.95
72106;SHT30;59975;47.646;18.318;2023-04-15T08:48:56;12.45;72.43
72106;SHT30;59975;47.646;18.318;2023-04-15T08:51:21;11.91;73.95
72106;SHT30;59975;47.646;18.318;2023-04-15T08:53:48;11.84;75.17
72106;SHT30;59975;47.646;18.318;2023-04-15T08:56:15;11.70;76.21
72106;SHT30;59975;47.646;18.318;2023-04-15T08:58:42;11.63;76.71
72106;SHT30;59975;47.646;18.318;2023-04-15T09:01:08;11.73;77.40
72106;SHT30;59975;47.646;18.318;2023-04-15T09:03:34;11.80;76.23
72106;SHT30;59975;47.646;18.318;2023-04-15T09:06:03;12.12;76.22
72106;SHT30;59975;47.646;18.318;2023-04-15T09:08:30;12.70;74.78
72106;SHT30;59975;47.646;18.318;2023-04-15T09:10:55;12.87;74.35
72106;SHT30;59975;47.646;18.318;2023-04-15T09:13:21;12.75;73.75
72106;SHT30;59975;47.646;18.318;2023-04-15T09:15:47;12.38;74.11
72106;SHT30;59975;47.646;18.318;2023-04-15T09:18:13;12.25;75.21
72106;SHT30;59975;47.646;18.318;2023-04-15T09:20:52;11.84;76.25
72106;SHT30;59975;47.646;18.318;2023-04-15T09:23:17;11.50;77.75
72106;SHT30;59975;47.646;18.318;2023-04-15T09:25:44;11.57;76.98
72106;SHT30;59975;47.646;18.318;2023-04-15T09:28:09;11.24;78.70
72106;SHT30;59975;47.646;18.318;2023-04-15T09:30:35;11.16;78.41
72106;SHT30;59975;47.646;18.318;2023-04-15T09:33:02;11.39;77.89
72106;SHT30;59975;47.646;18.318;2023-04-15T09:35:33;11.57;78.37
72106;SHT30;59975;47.646;18.318;2023-04-15T09:38:05;11.77;78.61
72106;SHT30;59975;47.646;18.318;2023-04-15T09:40:39;11.91;77.80
72106;SHT30;59975;47.646;18.318;2023-04-15T09:43:06;11.88;77.74
72106;SHT30;59975;47.646;18.318;2023-04-15T09:45:32;12.10;78.04
72106;SHT30;59975;47.646;18.318;2023-04-15T09:50:40;12.28;75.91
72106;SHT30;59975;47.646;18.318;2023-04-15T09:53:08;12.55;74.89
72106;SHT30;59975;47.646;18.318;2023-04-15T09:55:35;12.46;73.85
72106;SHT30;59975;47.646;18.318;2023-04-15T09:58:00;12.50;75.00
72106;SHT30;59975;47.646;18.318;2023-04-15T10:00:27;12.25;73.68
72106;SHT30;59975;47.646;18.318;2023-04-15T10:02:53;11.99;75.33
72106;SHT30;59975;47.646;18.318;2023-04-15T10:05:26;11.97;74.13
72106;SHT30;59975;47.646;18.318;2023-04-15T10:07:51;11.71;75.85
72106;SHT30;59975;47.646;18.318;2023-04-15T10:10:17;11.78;75.03
72106;SHT30;59975;47.646;18.318;2023-04-15T10:12:44;11.97;74.14
72106;SHT30;59975;47.646;18.318;2023-04-15T10:15:14;12.11;74.37
72106;SHT30;59975;47.646;18.318;2023-04-15T10:17:42;12.22;74.33
72106;SHT30;59975;47.646;18.318;2023-04-15T10:20:09;12.29;74.34
72106;SHT30;59975;47.646;18.318;2023-04-15T10:22:36;12.42;74.71
72106;SHT30;59975;47.646;18.318;2023-04-15T10:25:02;12.72;75.98
72106;SHT30;59975;47.646;18.318;2023-04-15T10:27:28;12.77;74.70
72106;SHT30;59975;47.646;18.318;2023-04-15T10:29:55;12.79;74.60
72106;SHT30;59975;47.646;18.318;2023-04-15T10:32:23;12.48;75.72
72106;SHT30;59975;47.646;18.318;2023-04-15T10:34:50;12.18;76.76
72106;SHT30;59975;47.646;18.318;2023-04-15T10:37:21;12.06;77.65
72106;SHT30;59975;47.646;18.318;2023-04-15T10:39:46;12.32;77.52
72106;SHT30;59975;47.646;18.318;2023-04-15T10:42:15;12.60;76.82
72106;SHT30;59975;47.646;18.318;2023-04-15T10:44:51;13.10;75.87
72106;SHT30;59975;47.646;18.318;2023-04-15T10:47:20;13.40;74.86
72106;SHT30;59975;47.646;18.318;2023-04-15T10:49:51;13.82;72.80
72106;SHT30;59975;47.646;18.318;2023-04-15T10:52:21;13.60;73.38
72106;SHT30;59975;47.646;18.318;2023-04-15T10:54:47;13.47;74.04
72106;SHT30;59975;47.646;18.318;2023-04-15T10:57:21;13.38;74.24
72106;SHT30;59975;47.646;18.318;2023-04-15T11:00:26;13.10;72.68
72106;SHT30;59975;47.646;18.318;2023-04-15T11:03:06;12.89;73.79
72106;SHT30;59975;47.646;18.318;2023-04-15T11:08:04;12.82;75.97
72106;SHT30;59975;47.646;18.318;2023-04-15T11:13:06;13.51;73.52
72106;SHT30;59975;47.646;18.318;2023-04-15T11:15:39;13.44;72.69
72106;SHT30;59975;47.646;18.318;2023-04-15T11:18:09;13.20;74.04
72106;SHT30;59975;47.646;18.318;2023-04-15T11:20:36;13.13;72.81
72106;SHT30;59975;47.646;18.318;2023-04-15T11:23:02;12.96;72.87
72106;SHT30;59975;47.646;18.318;2023-04-15T11:25:29;12.86;74.73
72106;SHT30;59975;47.646;18.318;2023-04-15T11:27:55;12.83;75.48
72106;SHT30;59975;47.646;18.318;2023-04-15T11:30:23;12.55;75.25
72106;SHT30;59975;47.646;18.318;2023-04-15T11:32:51;12.26;76.63
72106;SHT30;59975;47.646;18.318;2023-04-15T11:35:17;12.48;78.55
72106;SHT30;59975;47.646;18.318;2023-04-15T11:37:47;12.36;78.82
72106;SHT30;59975;47.646;18.318;2023-04-15T11:40:14;12.21;79.70
72106;SHT30;59975;47.646;18.318;2023-04-15T11:42:44;12.10;79.23
72106;SHT30;59975;47.646;18.318;2023-04-15T11:45:12;12.32;80.31
72106;SHT30;59975;47.646;18.318;2023-04-15T11:47:39;12.26;79.51
72106;SHT30;59975;47.646;18.318;2023-04-15T11:50:21;12.25;80.67
72106;SHT30;59975;47.646;18.318;2023-04-15T11:52:58;12.29;79.56
72106;SHT30;59975;47.646;18.318;2023-04-15T11:55:25;12.52;79.49
72106;SHT30;59975;47.646;18.318;2023-04-15T12:00:37;13.06;77.12
72106;SHT30;59975;47.646;18.318;2023-04-15T12:06:08;14.18;73.78
72106;SHT30;59975;47.646;18.318;2023-04-15T12:16:47;14.94;70.78
72106;SHT30;59975;47.646;18.318;2023-04-15T12:19:24;15.45;69.65
72106;SHT30;59975;47.646;18.318;2023-04-15T12:21:52;15.63;69.89
72106;SHT30;59975;47.646;18.318;2023-04-15T12:24:20;15.34;68.73
72106;SHT30;59975;47.646;18.318;2023-04-15T12:26:52;15.31;69.93
72106;SHT30;59975;47.646;18.318;2023-04-15T12:29:18;15.17;69.29
72106;SHT30;59975;47.646;18.318;2023-04-15T12:31:55;14.86;68.94
72106;SHT30;59975;47.646;18.318;2023-04-15T12:34:30;14.87;67.68
72106;SHT30;59975;47.646;18.318;2023-04-15T12:36:56;14.47;66.95
72106;SHT30;59975;47.646;18.318;2023-04-15T12:39:26;14.69;69.63
72106;SHT30;59975;47.646;18.318;2023-04-15T12:41:53;14.90;68.24
72106;SHT30;59975;47.646;18.318;2023-04-15T12:44:22;14.88;68.14
72106;SHT30;59975;47.646;18.318;2023-04-15T12:46:48;15.07;68.51
72106;SHT30;59975;47.646;18.318;2023-04-15T12:49:14;15.21;67.56
72106;SHT30;59975;47.646;18.318;2023-04-15T12:51:41;15.00;67.31
72106;SHT30;59975;47.646;18.318;2023-04-15T12:54:06;14.86;67.40
72106;SHT30;59975;47.646;18.318;2023-04-15T12:56:32;14.93;68.13
72106;SHT30;59975;47.646;18.318;2023-04-15T12:58:57;15.01;68.78
72106;SHT30;59975;47.646;18.318;2023-04-15T13:01:23;14.43;67.97
72106;SHT30;59975;47.646;18.318;2023-04-15T13:03:48;13.78;70.10
72106;SHT30;59975;47.646;18.318;2023-04-15T13:06:15;12.82;71.28
72106;SHT30;59975;47.646;18.318;2023-04-15T13:08:41;12.11;73.17
72106;SHT30;59975;47.646;18.318;2023-04-15T13:11:06;11.75;72.00
72106;SHT30;59975;47.646;18.318;2023-04-15T13:13:32;11.56;71.57
72106;SHT30;59975;47.646;18.318;2023-04-15T13:15:58;11.36;74.63
72106;SHT30;59975;47.646;18.318;2023-04-15T13:18:23;11.33;75.00
72106;SHT30;59975;47.646;18.318;2023-04-15T13:20:50;11.09;76.73
72106;SHT30;59975;47.646;18.318;2023-04-15T13:23:15;10.83;78.27
72106;SHT30;59975;47.646;18.318;2023-04-15T13:25:41;10.86;80.03
72106;SHT30;59975;47.646;18.318;2023-04-15T13:28:08;10.80;81.39
72106;SHT30;59975;47.646;18.318;2023-04-15T13:30:37;11.02;81.65
72106;SHT30;59975;47.646;18.318;2023-04-15T13:33:03;11.24;81.14
72106;SHT30;59975;47.646;18.318;2023-04-15T13:35:29;11.47;79.39
72106;SHT30;59975;47.646;18.318;2023-04-15T13:37:54;11.90;78.70
72106;SHT30;59975;47.646;18.318;2023-04-15T13:40:20;12.31;77.44
72106;SHT30;59975;47.646;18.318;2023-04-15T13:42:46;12.50;75.21
72106;SHT30;59975;47.646;18.318;2023-04-15T13:45:11;12.38;74.89
72106;SHT30;59975;47.646;18.318;2023-04-15T13:47:37;12.01;76.52
72106;SHT30;59975;47.646;18.318;2023-04-15T13:50:03;12.25;75.27
72106;SHT30;59975;47.646;18.318;2023-04-15T13:52:28;12.05;75.98
72106;SHT30;59975;47.646;18.318;2023-04-15T13:54:54;12.22;75.74
72106;SHT30;59975;47.646;18.318;2023-04-15T13:57:19;12.49;75.59
72106;SHT30;59975;47.646;18.318;2023-04-15T13:59:45;12.99;73.46
72106;SHT30;59975;47.646;18.318;2023-04-15T14:02:10;12.95;73.16
72106;SHT30;59975;47.646;18.318;2023-04-15T14:04:36;13.17;73.15
72106;SHT30;59975;47.646;18.318;2023-04-15T14:07:02;13.55;71.78
72106;SHT30;59975;47.646;18.318;2023-04-15T14:09:28;13.81;69.99
72106;SHT30;59975;47.646;18.318;2023-04-15T14:11:53;13.58;66.92
72106;SHT30;59975;47.646;18.318;2023-04-15T14:14:19;13.82;68.29
72106;SHT30;59975;47.646;18.318;2023-04-15T14:16:44;13.81;68.11
72106;SHT30;59975;47.646;18.318;2023-04-15T14:19:10;14.02;66.52
72106;SHT30;59975;47.646;18.318;2023-04-15T14:21:35;13.70;67.65
72106;SHT30;59975;47.646;18.318;2023-04-15T14:24:01;14.01;68.05
72106;SHT30;59975;47.646;18.318;2023-04-15T14:26:26;14.22;68.02
72106;SHT30;59975;47.646;18.318;2023-04-15T14:28:52;14.26;66.34
72106;SHT30;59975;47.646;18.318;2023-04-15T14:31:18;14.15;68.00
72106;SHT30;59975;47.646;18.318;2023-04-15T14:33:44;14.30;67.05
72106;SHT30;59975;47.646;18.318;2023-04-15T14:36:10;14.29;66.36
72106;SHT30;59975;47.646;18.318;2023-04-15T14:38:36;14.33;65.84
72106;SHT30;59975;47.646;18.318;2023-04-15T14:41:07;14.32;64.79
72106;SHT30;59975;47.646;18.318;2023-04-15T14:43:34;14.08;65.57
72106;SHT30;59975;47.646;18.318;2023-04-15T14:46:00;14.12;64.44
72106;SHT30;59975;47.646;18.318;2023-04-15T14:48:26;14.22;67.80
72106;SHT30;59975;47.646;18.318;2023-04-15T14:50:51;14.18;66.23
72106;SHT30;59975;47.646;18.318;2023-04-15T14:53:17;14.25;65.52
72106;SHT30;59975;47.646;18.318;2023-04-15T14:55:43;13.94;64.50
72106;SHT30;59975;47.646;18.318;2023-04-15T14:58:09;13.97;66.27
72106;SHT30;59975;47.646;18.318;2023-04-15T15:00:35;14.32;66.66
72106;SHT30;59975;47.646;18.318;2023-04-15T15:03:03;14.28;65.49
72106;SHT30;59975;47.646;18.318;2023-04-15T15:05:37;14.69;65.73
72106;SHT30;59975;47.646;18.318;2023-04-15T15:08:02;14.91;65.92
72106;SHT30;59975;47.646;18.318;2023-04-15T15:10:27;15.01;64.93
72106;SHT30;59975;47.646;18.318;2023-04-15T15:12:53;15.01;65.51
72106;SHT30;59975;47.646;18.318;2023-04-15T15:15:18;14.69;64.63
72106;SHT30;59975;47.646;18.318;2023-04-15T15:17:44;14.63;66.90
72106;SHT30;59975;47.646;18.318;2023-04-15T15:20:09;14.88;65.10
72106;SHT30;59975;47.646;18.318;2023-04-15T15:22:35;14.86;62.60
72106;SHT30;59975;47.646;18.318;2023-04-15T15:25:00;14.83;63.20
72106;SHT30;59975;47.646;18.318;2023-04-15T15:27:26;14.74;65.22
72106;SHT30;59975;47.646;18.318;2023-04-15T15:29:51;14.67;66.95
72106;SHT30;59975;47.646;18.318;2023-04-15T15:32:17;14.57;63.49
72106;SHT30;59975;47.646;18.318;2023-04-15T15:34:42;14.44;64.52
72106;SHT30;59975;47.646;18.318;2023-04-15T15:37:08;14.13;65.72
72106;SHT30;59975;47.646;18.318;2023-04-15T15:39:34;14.16;65.33